Time;durP1;ratioP1;P1;durP2;ratioP2;P2;SDS_P1;SDS_P2;PMS_P1;PMS_P2;Temp;Humidity;BMP_temperature;BMP_pressure;BME280_temperature;BME280_humidity;BME280_pressure;Samples;Min_cycle;Max_cycle;Signal;HPM_P1;HPM_P2
2022/02/07 00:01:01;;;;;;;1.10;0.90;;;3.90;99.90;;;;;;4961115;28;20449;-59
2022/02/07 00:06:05;;;;;;;0.90;0.90;;;4.00;99.90;;;;;;4968777;28;20506;-59
2022/02/07 00:08:33;;;;;;;0.80;0.80;;;4.10;99.90;;;;;;4964274;28;20550;-59
2022/02/07 00:10:59;;;;;;;0.90;0.90;;;4.10;99.90;;;;;;4965478;28;20182;-59
2022/02/07 00:13:25;;;;;;;0.90;0.90;;;4.20;99.90;;;;;;4968020;28;20531;-56
2022/02/07 00:15:50;;;;;;;0.73;0.73;;;4.20;99.90;;;;;;4965783;28;20268;-59
2022/02/07 00:18:16;;;;;;;0.80;0.80;;;4.20;99.90;;;;;;4963996;28;20172;-57
2022/02/07 00:20:42;;;;;;;1.80;0.80;;;4.20;99.90;;;;;;4967789;28;20216;-59
2022/02/07 00:23:08;;;;;;;0.90;0.90;;;4.20;99.90;;;;;;4966551;28;20925;-55
2022/02/07 00:25:35;;;;;;;1.37;0.90;;;4.30;99.90;;;;;;4968430;28;20190;-58
2022/02/07 00:28:01;;;;;;;1.17;0.90;;;4.30;99.90;;;;;;4961097;28;20464;-57
2022/02/07 00:30:27;;;;;;;0.83;0.80;;;4.30;99.90;;;;;;4979675;28;20638;-58
2022/02/07 00:32:53;;;;;;;0.80;0.80;;;4.30;99.90;;;;;;4980380;28;20488;-57
2022/02/07 00:35:22;;;;;;;1.27;0.80;;;4.30;99.90;;;;;;4980841;28;20656;-58
2022/02/07 00:37:50;;;;;;;0.80;0.80;;;4.30;99.90;;;;;;4973460;28;20212;-56
2022/02/07 00:43:02;;;;;;;0.80;0.80;;;4.30;99.90;;;;;;4972374;28;20910;-54
2022/02/07 00:48:01;;;;;;;0.70;0.70;;;4.40;99.90;;;;;;4982927;28;20434;-58
2022/02/07 00:50:31;;;;;;;0.70;0.70;;;4.40;99.90;;;;;;5003089;28;22548;-57
2022/02/07 00:52:58;;;;;;;0.97;0.97;;;4.50;99.90;;;;;;4965516;28;20896;-57
2022/02/07 00:55:24;;;;;;;0.80;0.80;;;4.50;99.90;;;;;;4969451;28;20938;-54
2022/02/07 00:57:49;;;;;;;0.70;0.70;;;4.60;99.90;;;;;;4962930;28;20503;-57
2022/02/07 01:00:17;;;;;;;0.80;0.80;;;4.70;99.90;;;;;;4969521;28;20559;-58
2022/02/07 01:02:43;;;;;;;1.10;1.00;;;4.70;99.90;;;;;;4963667;28;20178;-57
2022/02/07 01:05:10;;;;;;;0.70;0.70;;;4.70;99.90;;;;;;4966678;28;20456;-56
2022/02/07 01:07:36;;;;;;;0.70;0.70;;;4.70;99.90;;;;;;4965602;28;20468;-58
2022/02/07 01:10:03;;;;;;;0.70;0.70;;;4.60;99.90;;;;;;4965572;28;20476;-57
2022/02/07 01:54:48;;;;;;;0.93;0.80;;;2.60;99.90;;;;;;4966872;28;20586;-58
2022/02/07 01:57:14;;;;;;;0.70;0.70;;;2.50;99.90;;;;;;4966741;28;20425;-58
2022/02/07 01:59:41;;;;;;;0.80;0.80;;;2.50;99.90;;;;;;4965156;28;20957;-57
2022/02/07 02:02:08;;;;;;;0.87;0.87;;;2.50;99.90;;;;;;4981068;28;20440;-57
2022/02/07 02:04:34;;;;;;;0.87;0.87;;;2.50;99.90;;;;;;4985272;28;21217;-60
2022/02/07 02:07:00;;;;;;;0.97;0.90;;;2.40;99.90;;;;;;4989357;28;20455;-58
2022/02/07 02:09:30;;;;;;;1.03;1.00;;;2.40;99.90;;;;;;4963971;28;20891;-56
2022/02/07 02:11:56;;;;;;;0.80;0.80;;;2.40;99.90;;;;;;4963172;28;21555;-56
2022/02/07 02:22:39;;;;;;;0.80;0.80;;;2.40;99.90;;;;;;4962370;28;20467;-57
2022/02/07 02:38:40;;;;;;;1.13;1.00;;;2.20;99.90;;;;;;4966068;28;20455;-58
2022/02/07 02:46:36;;;;;;;1.40;1.03;;;2.10;99.90;;;;;;4961556;28;20979;-58
2022/02/07 02:49:03;;;;;;;1.40;1.20;;;2.10;99.90;;;;;;4959126;28;20434;-58
2022/02/07 02:51:30;;;;;;;2.20;1.30;;;2.00;99.90;;;;;;4969498;28;20450;-59
2022/02/07 02:53:56;;;;;;;1.00;1.00;;;2.00;99.90;;;;;;4961995;28;20474;-59
2022/02/07 02:56:22;;;;;;;3.70;1.10;;;2.00;99.90;;;;;;4964511;28;20825;-61
2022/02/07 02:58:48;;;;;;;8.93;1.43;;;2.00;99.90;;;;;;4964045;28;20446;-57
2022/02/07 03:01:14;;;;;;;2.73;1.20;;;2.00;99.90;;;;;;4965082;28;20471;-58
2022/02/07 03:03:40;;;;;;;1.70;1.27;;;2.00;99.90;;;;;;4966280;28;20532;-57
2022/02/07 03:06:05;;;;;;;1.67;1.30;;;2.00;99.90;;;;;;4964056;28;20664;-58
2022/02/07 03:08:31;;;;;;;1.53;1.17;;;2.00;99.90;;;;;;4965780;28;20351;-55
2022/02/07 03:18:33;;;;;;;4.20;1.30;;;2.00;99.90;;;;;;4962359;28;20344;-59
2022/02/07 03:20:59;;;;;;;1.10;1.10;;;2.00;99.90;;;;;;4963492;28;20541;-58
2022/02/07 03:23:25;;;;;;;2.27;1.23;;;2.00;99.90;;;;;;4964146;28;20186;-59
2022/02/07 03:25:51;;;;;;;6.87;1.43;;;2.00;99.90;;;;;;4964055;28;20450;-56
2022/02/07 03:28:18;;;;;;;1.40;1.20;;;2.00;99.90;;;;;;4959436;28;20341;-59
2022/02/07 03:30:45;;;;;;;2.50;1.40;;;2.00;99.90;;;;;;4963837;28;20469;-57
2022/02/07 03:33:11;;;;;;;3.87;2.00;;;2.00;99.90;;;;;;4963212;28;20467;-56
2022/02/07 03:35:37;;;;;;;1.77;1.37;;;2.00;99.90;;;;;;4961461;28;20938;-58
2022/02/07 03:38:05;;;;;;;1.27;1.17;;;2.00;99.90;;;;;;4963491;28;20959;-55
2022/02/07 03:40:31;;;;;;;1.33;1.23;;;2.00;99.90;;;;;;4960068;28;20479;-56
2022/02/07 03:42:57;;;;;;;4.67;1.40;;;2.00;99.90;;;;;;4960703;28;20938;-58
2022/02/07 03:45:22;;;;;;;3.43;1.37;;;2.00;99.90;;;;;;4959688;28;20456;-55
2022/02/07 03:47:48;;;;;;;1.70;1.20;;;2.00;99.90;;;;;;4959344;28;20194;-57
2022/02/07 03:50:14;;;;;;;3.47;1.53;;;2.00;99.90;;;;;;4960791;28;20224;-56
2022/02/07 03:52:40;;;;;;;1.90;1.40;;;2.10;99.90;;;;;;4958121;28;20206;-57
2022/02/07 03:55:06;;;;;;;3.47;1.33;;;2.00;99.90;;;;;;4968838;28;20461;-57
2022/02/07 03:57:32;;;;;;;4.30;1.57;;;2.00;99.90;;;;;;4984287;28;20187;-58
2022/02/07 03:59:59;;;;;;;2.63;1.70;;;2.00;99.90;;;;;;4964893;28;20467;-55
2022/02/07 04:02:25;;;;;;;2.10;1.30;;;2.10;99.90;;;;;;4965358;28;20473;-56
2022/02/07 04:04:58;;;;;;;3.37;1.73;;;2.10;99.90;;;;;;4966273;28;20474;-56
2022/02/07 04:07:24;;;;;;;3.47;1.60;;;2.00;99.90;;;;;;4987406;28;20196;-58
2022/02/07 04:09:54;;;;;;;7.77;2.43;;;2.00;99.90;;;;;;4963729;28;20551;-57
2022/02/07 04:12:23;;;;;;;4.57;1.57;;;2.00;99.90;;;;;;4961307;28;20232;-58
2022/02/07 04:14:49;;;;;;;3.57;1.80;;;2.00;99.90;;;;;;4966009;28;20507;-60
2022/02/07 04:17:21;;;;;;;4.73;1.70;;;2.00;99.90;;;;;;4979472;28;20436;-59
2022/02/07 04:19:46;;;;;;;2.77;1.33;;;2.00;99.90;;;;;;4962708;28;20621;-55
2022/02/07 04:22:12;;;;;;;2.07;1.23;;;2.00;99.90;;;;;;4969225;28;20435;-58
2022/02/07 04:24:38;;;;;;;1.53;1.30;;;2.00;99.90;;;;;;4972909;28;20247;-57
2022/02/07 04:27:04;;;;;;;6.13;2.13;;;2.00;99.90;;;;;;4976207;28;20278;-59
2022/02/07 04:29:31;;;;;;;3.03;2.00;;;2.00;99.90;;;;;;4971635;28;20219;-56
2022/02/07 04:31:57;;;;;;;2.43;2.03;;;2.00;99.90;;;;;;4971461;28;20436;-59
2022/02/07 04:34:22;;;;;;;10.10;1.90;;;2.00;99.90;;;;;;4985461;28;20435;-59
2022/02/07 04:36:54;;;;;;;6.43;2.37;;;2.00;99.90;;;;;;4990011;28;20508;-59
2022/02/07 04:39:20;;;;;;;3.00;2.13;;;2.00;99.90;;;;;;4987401;28;20251;-60
2022/02/07 04:41:45;;;;;;;6.53;1.77;;;2.00;99.90;;;;;;4966208;28;20478;-54
2022/02/07 04:44:15;;;;;;;4.50;1.87;;;2.00;99.90;;;;;;4967195;28;20277;-59
2022/02/07 04:46:56;;;;;;;4.13;2.10;;;2.00;99.90;;;;;;4966152;28;20938;-54
2022/02/07 04:55:01;;;;;;;4.33;1.83;;;1.90;99.90;;;;;;4985863;28;20442;-58
2022/02/07 05:00:07;;;;;;;7.40;2.03;;;1.90;99.90;;;;;;4982425;28;20462;-54
2022/02/07 05:15:49;;;;;;;1.10;1.10;;;1.60;99.90;;;;;;4963594;28;22105;-60
2022/02/07 05:18:15;;;;;;;3.37;1.47;;;1.60;99.90;;;;;;4967357;28;20427;-58
2022/02/07 05:20:40;;;;;;;1.40;1.30;;;1.50;99.90;;;;;;4975331;28;20451;-58
2022/02/07 05:23:06;;;;;;;1.20;1.10;;;1.40;99.90;;;;;;4966880;28;20181;-56
2022/02/07 05:25:33;;;;;;;0.90;0.90;;;1.40;99.90;;;;;;4962565;28;20191;-59
2022/02/07 05:27:58;;;;;;;1.03;1.03;;;1.30;99.90;;;;;;4963370;28;20334;-56
2022/02/07 05:30:24;;;;;;;1.00;1.00;;;1.20;99.90;;;;;;5002113;23;21075;-58
2022/02/07 05:32:50;;;;;;;1.33;1.10;;;1.20;99.90;;;;;;5008165;28;20228;-57
2022/02/07 05:35:15;;;;;;;0.90;0.90;;;1.20;99.90;;;;;;5009063;28;20755;-59
2022/02/07 05:37:41;;;;;;;0.90;0.90;;;1.20;99.90;;;;;;5008774;28;20233;-58
2022/02/07 05:40:13;;;;;;;1.20;1.10;;;1.20;99.90;;;;;;5004837;28;20977;-57
2022/02/07 05:42:39;;;;;;;1.00;1.00;;;1.20;99.90;;;;;;5010010;28;20179;-58
2022/02/07 05:45:09;;;;;;;0.90;0.90;;;1.20;99.90;;;;;;5015492;28;20962;-58
2022/02/07 05:47:35;;;;;;;0.90;0.90;;;1.20;99.90;;;;;;5006445;28;20449;-57
2022/02/07 05:50:03;;;;;;;2.30;1.10;;;1.30;99.90;;;;;;5001102;28;20461;-57
2022/02/07 05:52:29;;;;;;;1.10;1.00;;;1.30;99.90;;;;;;5004366;28;20453;-59
2022/02/07 05:54:55;;;;;;;2.93;1.10;;;1.30;99.90;;;;;;5008100;28;20455;-57
2022/02/07 05:57:20;;;;;;;1.10;1.00;;;1.30;99.90;;;;;;5011333;28;20170;-58
2022/02/07 05:59:46;;;;;;;1.03;1.00;;;1.30;99.90;;;;;;5007869;28;20194;-57
2022/02/07 06:02:12;;;;;;;1.30;1.20;;;1.20;99.90;;;;;;5000187;28;20173;-58
2022/02/07 06:04:37;;;;;;;1.50;1.30;;;1.20;99.90;;;;;;5002015;28;20183;-58
2022/02/07 06:07:03;;;;;;;2.53;1.20;;;1.20;99.90;;;;;;4995748;28;20197;-57
2022/02/07 06:09:29;;;;;;;2.03;1.30;;;1.20;99.90;;;;;;4997283;28;20682;-57
2022/02/07 06:11:56;;;;;;;3.10;1.30;;;1.20;99.90;;;;;;5013436;28;21194;-58
2022/02/07 06:14:21;;;;;;;1.47;1.00;;;1.10;99.90;;;;;;4997714;28;20191;-58
2022/02/07 06:16:47;;;;;;;3.00;1.40;;;1.10;99.90;;;;;;5005022;28;20439;-58
2022/02/07 06:19:13;;;;;;;2.70;1.33;;;1.10;99.90;;;;;;5007503;28;20179;-57
2022/02/07 06:21:39;;;;;;;1.60;1.10;;;1.00;99.90;;;;;;5008588;28;20225;-62
2022/02/07 06:24:05;;;;;;;2.60;1.20;;;1.00;99.90;;;;;;5009626;28;20263;-63
2022/02/07 06:26:31;;;;;;;2.60;1.40;;;1.00;99.90;;;;;;5007762;28;20941;-63
2022/02/07 06:28:58;;;;;;;1.80;1.53;;;1.00;99.90;;;;;;5006132;28;20434;-59
2022/02/07 06:31:25;;;;;;;1.60;1.50;;;0.90;99.90;;;;;;5009396;28;21000;-59
2022/02/07 06:33:51;;;;;;;3.00;1.20;;;0.90;99.90;;;;;;5003256;28;20487;-59
2022/02/07 06:36:17;;;;;;;2.23;1.50;;;0.90;99.90;;;;;;5006222;28;20437;-60
2022/02/07 06:38:43;;;;;;;2.53;1.40;;;0.90;99.90;;;;;;5006461;28;20960;-59
2022/02/07 06:41:09;;;;;;;1.27;1.17;;;0.80;99.90;;;;;;5007938;28;20533;-59
2022/02/07 06:43:35;;;;;;;3.83;1.40;;;0.80;99.90;;;;;;5006179;28;20425;-59
2022/02/07 06:46:00;;;;;;;4.80;1.60;;;0.80;99.90;;;;;;5005450;28;20442;-60
2022/02/07 06:48:27;;;;;;;2.10;1.80;;;0.80;99.90;;;;;;5006780;28;20186;-60
2022/02/07 06:50:52;;;;;;;2.80;1.40;;;0.80;99.90;;;;;;5008397;28;20252;-59
2022/02/07 06:53:18;;;;;;;1.57;1.47;;;0.80;99.90;;;;;;5009193;28;20465;-60
2022/02/07 06:55:45;;;;;;;6.07;1.60;;;0.80;99.90;;;;;;5007583;28;20178;-59
2022/02/07 06:58:10;;;;;;;12.83;1.67;;;0.80;99.90;;;;;;5007013;28;20229;-59
2022/02/07 07:00:36;;;;;;;1.73;1.57;;;0.80;99.90;;;;;;5007473;28;20450;-59
2022/02/07 07:03:02;;;;;;;2.33;1.50;;;0.80;99.90;;;;;;5006898;28;20211;-60
2022/02/07 07:05:28;;;;;;;8.00;2.13;;;0.80;99.90;;;;;;5007346;28;20233;-58
2022/02/07 07:07:54;;;;;;;3.70;1.57;;;0.80;99.90;;;;;;5006741;28;20429;-58
2022/02/07 07:10:20;;;;;;;3.50;1.60;;;0.90;99.90;;;;;;5006246;28;20198;-58
2022/02/07 07:12:49;;;;;;;2.60;1.70;;;0.90;99.90;;;;;;5002445;28;20208;-59
2022/02/07 07:15:26;;;;;;;4.03;1.93;;;0.90;99.90;;;;;;5013451;28;20427;-60
2022/02/07 07:17:52;;;;;;;3.93;1.90;;;1.00;99.90;;;;;;5005200;28;20437;-58
2022/02/07 07:20:18;;;;;;;2.93;1.87;;;1.00;99.90;;;;;;5006509;28;20440;-59
2022/02/07 07:22:44;;;;;;;6.33;1.60;;;1.00;99.90;;;;;;5005625;28;20436;-60
2022/02/07 07:25:14;;;;;;;5.20;2.30;;;1.00;99.90;;;;;;5012523;28;20743;-59
2022/02/07 07:27:55;;;;;;;1.77;1.67;;;1.00;99.90;;;;;;5014111;28;20821;-60
2022/02/07 07:30:25;;;;;;;2.20;1.70;;;1.00;99.90;;;;;;5005090;28;20904;-59
2022/02/07 07:32:51;;;;;;;8.03;2.27;;;1.10;99.90;;;;;;5007727;28;20462;-59
2022/02/07 07:35:16;;;;;;;9.30;2.00;;;1.10;99.90;;;;;;5009911;28;20432;-58
2022/02/07 07:37:42;;;;;;;4.80;1.73;;;1.10;99.90;;;;;;5011715;28;20922;-60
2022/02/07 07:40:08;;;;;;;5.77;2.00;;;1.20;99.90;;;;;;5009963;28;20198;-60
2022/02/07 07:42:34;;;;;;;3.37;2.10;;;1.20;99.90;;;;;;5010768;28;20598;-60
2022/02/07 07:45:00;;;;;;;6.27;2.33;;;1.20;99.90;;;;;;5010836;28;20482;-60
2022/02/07 07:47:29;;;;;;;5.23;2.20;;;1.20;99.90;;;;;;5012455;28;20538;-59
2022/02/07 07:50:14;;;;;;;4.80;2.10;;;1.20;99.90;;;;;;5007062;28;20605;-59
2022/02/07 07:53:07;;;;;;;5.97;1.80;;;1.30;99.90;;;;;;5008627;28;20447;-59
2022/02/07 08:03:41;;;;;;;8.00;2.80;;;1.40;99.90;;;;;;5017972;28;20501;-59
2022/02/07 08:06:29;;;;;;;6.00;2.60;;;1.50;99.90;;;;;;5003099;28;20895;-59
2022/02/07 08:11:34;;;;;;;6.53;2.40;;;1.60;99.90;;;;;;5011384;28;20441;-60
2022/02/07 08:14:01;;;;;;;7.03;2.50;;;1.60;99.90;;;;;;5007917;28;20762;-60
2022/02/07 08:16:27;;;;;;;5.90;2.50;;;1.60;99.90;;;;;;5010239;28;20420;-59
2022/02/07 08:18:55;;;;;;;3.23;2.20;;;1.60;99.90;;;;;;5010041;28;20518;-59
2022/02/07 08:21:21;;;;;;;7.30;3.10;;;1.60;99.90;;;;;;5009240;28;20491;-57
2022/02/07 08:23:46;;;;;;;15.30;8.13;;;1.60;99.90;;;;;;5007177;28;20446;-59
2022/02/07 08:26:12;;;;;;;12.97;2.80;;;1.70;99.90;;;;;;5007055;28;20429;-58
2022/02/07 08:28:38;;;;;;;4.73;2.40;;;1.60;99.90;;;;;;5007868;28;20179;-59
2022/02/07 08:31:04;;;;;;;5.47;2.20;;;1.70;99.90;;;;;;5011527;28;20556;-59
2022/02/07 08:33:30;;;;;;;4.97;2.73;;;1.70;99.90;;;;;;5008901;28;20209;-59
2022/02/07 08:35:56;;;;;;;5.40;2.60;;;1.70;99.90;;;;;;5007246;28;20176;-57
2022/02/07 08:38:22;;;;;;;6.00;2.50;;;1.60;99.90;;;;;;5014831;28;20899;-59
2022/02/07 08:40:49;;;;;;;13.37;2.90;;;1.60;99.90;;;;;;5005738;28;20454;-59
2022/02/07 08:43:14;;;;;;;6.83;3.80;;;1.60;99.90;;;;;;5006447;28;20187;-60
2022/02/07 08:45:41;;;;;;;5.60;2.73;;;1.60;99.90;;;;;;5007585;28;20432;-59
2022/02/07 08:48:07;;;;;;;4.43;2.70;;;1.60;99.90;;;;;;5009131;28;20187;-60
2022/02/07 08:50:34;;;;;;;14.53;2.87;;;1.70;99.90;;;;;;5005300;28;20460;-58
2022/02/07 08:53:01;;;;;;;5.13;2.40;;;1.70;99.90;;;;;;5012659;28;20457;-59
2022/02/07 08:55:37;;;;;;;10.67;3.70;;;1.80;99.90;;;;;;5009328;28;20422;-59
2022/02/07 08:58:09;;;;;;;10.10;2.60;;;1.70;99.90;;;;;;5012954;28;20785;-58
2022/02/07 09:06:26;;;;;;;3.03;2.30;;;1.60;99.90;;;;;;5015052;28;21175;-59
2022/02/07 09:11:56;;;;;;;4.27;2.23;;;1.60;99.90;;;;;;4962685;28;20435;-58
2022/02/07 09:14:23;;;;;;;6.83;2.40;;;1.70;99.90;;;;;;4965389;28;20475;-60
2022/02/07 09:16:51;;;;;;;3.07;2.77;;;1.70;99.90;;;;;;4983112;28;20194;-59
2022/02/07 09:19:19;;;;;;;3.30;2.20;;;1.70;99.90;;;;;;5005784;28;20485;-58
2022/02/07 09:21:47;;;;;;;9.00;3.13;;;1.70;99.90;;;;;;5000519;28;20532;-60
2022/02/07 09:24:13;;;;;;;13.80;3.33;;;1.80;99.90;;;;;;5009609;28;20520;-59
2022/02/07 09:26:38;;;;;;;5.63;2.50;;;1.80;99.90;;;;;;5009283;28;20430;-59
2022/02/07 09:29:04;;;;;;;8.37;2.80;;;1.90;99.90;;;;;;5007786;28;20721;-56
2022/02/07 09:31:30;;;;;;;6.53;2.77;;;1.90;99.90;;;;;;5009511;28;20234;-58
2022/02/07 09:33:56;;;;;;;6.77;2.20;;;2.00;99.90;;;;;;5018674;28;20217;-59
2022/02/07 09:36:24;;;;;;;8.50;2.90;;;2.00;99.90;;;;;;5019334;28;20564;-59
2022/02/07 09:38:50;;;;;;;8.77;2.90;;;2.00;99.90;;;;;;5010223;28;20441;-60
2022/02/07 09:41:17;;;;;;;10.07;2.60;;;2.10;99.90;;;;;;5020000;28;20445;-60
2022/02/07 09:43:47;;;;;;;6.27;2.80;;;2.20;99.90;;;;;;5008063;28;20437;-59
2022/02/07 09:46:35;;;;;;;3.60;1.90;;;2.20;99.90;;;;;;5005799;28;20454;-59
2022/02/07 09:49:03;;;;;;;7.23;2.30;;;2.10;99.90;;;;;;5009303;28;20437;-59
2022/02/07 09:51:29;;;;;;;3.70;2.10;;;2.10;99.90;;;;;;5018594;28;20451;-58
2022/02/07 09:53:55;;;;;;;4.43;2.30;;;2.00;99.90;;;;;;5006819;28;20825;-59
2022/02/07 09:56:22;;;;;;;15.23;3.47;;;2.00;99.90;;;;;;5003297;28;20186;-59
2022/02/07 09:58:51;;;;;;;13.37;3.10;;;2.10;99.90;;;;;;5005439;28;20441;-59
2022/02/07 10:01:25;;;;;;;4.33;2.70;;;2.10;99.90;;;;;;5005135;28;20457;-58
2022/02/07 10:04:19;;;;;;;9.00;2.70;;;2.10;99.90;;;;;;5004800;28;20457;-59
2022/02/07 10:06:57;;;;;;;13.53;2.73;;;2.10;99.90;;;;;;5007353;28;20427;-59
2022/02/07 10:18:12;;;;;;;9.43;2.30;;;2.20;99.90;;;;;;4999297;28;20454;-59
2022/02/07 10:35:33;;;;;;;11.20;2.73;;;2.20;99.90;;;;;;5010225;28;20465;-60
2022/02/07 10:38:20;;;;;;;4.83;2.70;;;2.30;99.90;;;;;;5008925;28;20540;-60
2022/02/07 10:41:19;;;;;;;10.17;3.60;;;2.30;99.90;;;;;;5007684;28;20449;-60
2022/02/07 10:46:10;;;;;;;;;;;;;;;;;;;;;
2022/02/07 10:48:56;;;;;;;3.93;1.90;;;2.30;99.90;;;;;;5030950;28;20218;-60
2022/02/07 10:51:27;;;;;;;13.30;2.47;;;2.30;99.90;;;;;;5007255;28;20454;-59
2022/02/07 10:54:16;;;;;;;5.07;2.03;;;2.30;99.90;;;;;;5018262;28;20594;-60
2022/02/07 10:56:45;;;;;;;13.53;2.50;;;2.20;99.90;;;;;;5010818;28;20438;-60
2022/02/07 10:59:18;;;;;;;4.80;1.97;;;2.30;99.90;;;;;;5005175;28;20433;-59
2022/02/07 11:04:29;;;;;;;11.33;2.27;;;2.30;99.90;;;;;;5010449;28;20504;-59
2022/02/07 11:07:00;;;;;;;7.00;2.67;;;2.30;99.90;;;;;;5033818;28;20527;-59
2022/02/07 11:09:35;;;;;;;7.43;2.40;;;2.40;99.90;;;;;;5005448;28;20916;-59
2022/02/07 11:20:22;;;;;;;8.20;3.00;;;2.90;99.90;;;;;;5028259;28;20433;-58
2022/02/07 11:23:51;;;;;;;7.73;1.77;;;3.00;99.90;;;;;;5006545;28;20422;-59
2022/02/07 11:25:55;;;;;;;3.83;1.90;;;3.10;99.90;;;;;;5005727;28;20843;-59
2022/02/07 11:28:27;;;;;;;5.30;2.40;;;3.20;99.90;;;;;;5007023;28;20726;-58
2022/02/07 11:30:59;;;;;;;4.27;2.03;;;3.30;99.90;;;;;;5029191;23;20566;-58
2022/02/07 11:33:43;;;;;;;4.47;2.10;;;3.30;99.90;;;;;;5027073;28;20915;-59
2022/02/07 11:36:30;;;;;;;8.23;2.20;;;3.30;99.50;;;;;;5027044;28;20423;-58
2022/02/07 11:39:02;;;;;;;12.97;2.00;;;3.40;98.40;;;;;;5026345;28;20446;-57
2022/02/07 11:41:27;;;;;;;4.17;2.10;;;3.30;97.70;;;;;;5018714;28;20512;-56
2022/02/07 11:43:54;;;;;;;6.93;2.60;;;3.30;99.50;;;;;;5010892;28;20431;-57
2022/02/07 11:46:21;;;;;;;9.67;2.93;;;3.30;98.30;;;;;;5005879;28;20183;-54
2022/02/07 11:48:52;;;;;;;5.77;1.80;;;3.30;98.10;;;;;;5017283;28;20731;-58
2022/02/07 11:51:30;;;;;;;4.10;2.07;;;3.40;99.10;;;;;;5018125;28;20468;-57
2022/02/07 11:53:57;;;;;;;4.23;2.20;;;3.50;97.80;;;;;;5016515;28;20464;-56
2022/02/07 11:59:18;;;;;;;5.70;1.93;;;3.50;97.40;;;;;;5005007;28;20464;-57
2022/02/07 12:01:46;;;;;;;4.23;1.80;;;3.50;96.10;;;;;;5011085;28;20519;-57
2022/02/07 12:04:22;;;;;;;4.17;2.03;;;3.60;95.70;;;;;;5001751;28;20518;-54
2022/02/07 12:06:48;;;;;;;3.30;1.80;;;3.60;96.90;;;;;;5025339;28;20490;-56
2022/02/07 12:09:23;;;;;;;1.73;1.60;;;4.10;96.60;;;;;;5014356;28;20467;-55
2022/02/07 12:11:48;;;;;;;3.63;1.80;;;4.40;94.40;;;;;;5012338;28;20196;-55
2022/02/07 12:14:35;;;;;;;9.07;2.40;;;4.50;94.00;;;;;;4991411;28;20505;-56
2022/02/07 12:17:02;;;;;;;6.27;1.90;;;4.80;90.00;;;;;;4998413;28;20182;-54
2022/02/07 12:19:39;;;;;;;5.90;2.23;;;4.70;88.50;;;;;;5004000;28;20434;-55
2022/02/07 12:22:12;;;;;;;5.90;2.03;;;4.70;86.20;;;;;;5007426;28;20474;-57
2022/02/07 12:24:56;;;;;;;6.10;2.00;;;4.90;89.50;;;;;;5002231;28;20423;-54
2022/02/07 12:27:23;;;;;;;7.73;3.30;;;5.30;80.10;;;;;;5004613;28;20872;-58
2022/02/07 12:32:33;;;;;;;3.53;1.80;;;6.70;74.00;;;;;;5002852;28;20466;-56
2022/02/07 12:34:59;;;;;;;8.47;2.20;;;7.70;65.50;;;;;;5007880;28;20431;-56
2022/02/07 12:37:24;;;;;;;7.43;2.13;;;8.60;59.30;;;;;;5003117;28;20177;-54
2022/02/07 12:39:51;;;;;;;5.73;2.17;;;8.70;54.60;;;;;;5001389;28;20874;-56
2022/02/07 12:42:16;;;;;;;7.50;2.33;;;8.60;56.00;;;;;;5009698;28;20212;-55
2022/02/07 12:44:45;;;;;;;4.30;2.07;;;8.10;56.30;;;;;;5008882;28;20794;-56
2022/02/07 12:47:13;;;;;;;3.70;2.20;;;7.80;56.50;;;;;;5007481;28;20528;-56
2022/02/07 12:49:44;;;;;;;8.33;2.90;;;7.50;56.50;;;;;;5001856;28;20467;-57
2022/02/07 12:52:10;;;;;;;5.13;2.07;;;7.20;56.90;;;;;;5012034;28;20449;-59
2022/02/07 12:54:36;;;;;;;8.30;2.60;;;6.90;58.10;;;;;;5008250;28;20999;-56
2022/02/07 12:57:03;;;;;;;8.97;2.13;;;6.90;59.80;;;;;;5001817;28;20645;-56
2022/02/07 12:59:29;;;;;;;4.90;1.97;;;6.70;59.70;;;;;;5007698;28;21006;-56
2022/02/07 13:01:55;;;;;;;4.40;1.90;;;6.40;60.40;;;;;;5013463;28;20508;-55
2022/02/07 13:04:22;;;;;;;12.63;2.47;;;6.00;63.20;;;;;;5002239;28;20436;-57
2022/02/07 13:06:50;;;;;;;8.33;2.53;;;5.70;68.00;;;;;;5010040;28;20176;-54
2022/02/07 13:09:50;;;;;;;5.57;1.80;;;5.40;66.70;;;;;;5019959;28;20432;-58
2022/02/07 13:12:21;;;;;;;8.43;2.07;;;5.00;64.00;;;;;;5001573;28;20905;-55
2022/02/07 13:14:49;;;;;;;2.73;1.77;;;4.80;71.30;;;;;;5007596;28;20431;-55
2022/02/07 13:17:18;;;;;;;5.90;2.17;;;4.60;77.40;;;;;;5014405;28;20462;-55
2022/02/07 13:19:48;;;;;;;3.00;2.23;;;4.40;77.90;;;;;;5011020;28;20999;-57
2022/02/07 13:22:16;;;;;;;2.50;1.87;;;4.30;78.20;;;;;;5011386;28;20462;-58
2022/02/07 13:24:43;;;;;;;6.60;2.07;;;4.30;78.70;;;;;;5007215;28;20439;-56
2022/02/07 13:27:14;;;;;;;5.93;2.07;;;4.10;77.60;;;;;;5017480;28;20435;-57
2022/02/07 13:29:45;;;;;;;4.63;2.53;;;4.00;81.90;;;;;;5015300;28;20576;-57
2022/02/07 13:32:17;;;;;;;9.07;2.17;;;3.90;84.80;;;;;;5012384;28;20474;-57
2022/02/07 13:34:45;;;;;;;4.57;2.30;;;3.90;83.40;;;;;;5009603;28;20543;-57
2022/02/07 13:37:32;;;;;;;4.60;1.80;;;3.80;81.30;;;;;;5007794;28;20471;-56
2022/02/07 13:40:01;;;;;;;3.70;1.83;;;3.80;86.50;;;;;;5024548;28;20446;-55
2022/02/07 13:42:29;;;;;;;4.13;2.30;;;3.80;90.00;;;;;;5001932;28;20420;-56
2022/02/07 13:45:04;;;;;;;6.10;2.43;;;3.80;87.60;;;;;;5014556;28;20423;-53
2022/02/07 13:47:30;;;;;;;9.00;2.00;;;3.90;87.60;;;;;;5003184;28;20421;-51
2022/02/07 13:50:06;;;;;;;7.17;2.27;;;3.90;87.50;;;;;;5009112;28;20427;-52
2022/02/07 13:52:36;;;;;;;3.37;1.80;;;3.80;86.60;;;;;;5008357;28;20518;-56
2022/02/07 13:55:21;;;;;;;4.40;1.93;;;3.80;85.20;;;;;;5002573;28;20804;-53
2022/02/07 13:57:54;;;;;;;6.60;2.10;;;3.80;82.80;;;;;;5008506;28;20728;-54
2022/02/07 14:00:23;;;;;;;5.73;2.23;;;3.80;77.70;;;;;;5008546;28;20439;-54
2022/02/07 14:03:01;;;;;;;3.00;2.10;;;3.80;76.90;;;;;;5009948;28;20926;-53
2022/02/07 14:05:41;;;;;;;5.67;2.47;;;3.90;80.00;;;;;;5008585;28;20427;-54
2022/02/07 14:08:09;;;;;;;6.70;1.83;;;4.40;74.10;;;;;;5011480;28;20820;-55
2022/02/07 14:10:38;;;;;;;3.80;1.70;;;4.70;67.00;;;;;;5012859;28;20598;-54
2022/02/07 14:13:15;;;;;;;3.20;2.03;;;4.80;65.90;;;;;;4994520;28;20459;-57
2022/02/07 14:15:43;;;;;;;3.43;1.70;;;4.70;65.80;;;;;;5010310;28;20909;-58
2022/02/07 14:18:12;;;;;;;8.90;2.20;;;4.60;66.10;;;;;;5019230;28;20419;-54
2022/02/07 14:20:38;;;;;;;2.90;1.90;;;4.60;66.80;;;;;;5007042;28;20713;-58
2022/02/07 14:23:05;;;;;;;5.60;1.83;;;4.40;67.80;;;;;;5005475;28;20435;-57
2022/02/07 14:25:31;;;;;;;5.20;2.20;;;4.30;72.50;;;;;;5001479;28;20776;-59
2022/02/07 14:28:00;;;;;;;5.47;2.67;;;4.30;73.00;;;;;;5000905;28;20443;-56
2022/02/07 14:30:29;;;;;;;10.23;2.80;;;4.20;74.80;;;;;;5012244;28;20474;-57
2022/02/07 14:32:55;;;;;;;5.37;2.00;;;4.20;75.10;;;;;;5007076;28;21225;-57
2022/02/07 14:35:21;;;;;;;5.33;2.00;;;4.70;80.20;;;;;;5011136;28;20429;-55
2022/02/07 14:37:48;;;;;;;11.30;2.43;;;5.90;70.00;;;;;;5007429;28;20653;-57
2022/02/07 14:40:15;;;;;;;7.23;2.70;;;7.50;60.80;;;;;;4998659;28;20224;-57
2022/02/07 14:42:41;;;;;;;12.73;2.20;;;9.00;54.20;;;;;;5004423;28;21203;-56
2022/02/07 14:45:15;;;;;;;9.47;3.23;;;9.40;49.50;;;;;;5006198;28;20438;-57
2022/02/07 14:47:51;;;;;;;3.90;2.20;;;9.20;49.50;;;;;;5003267;28;20709;-56
2022/02/07 14:50:21;;;;;;;9.27;2.77;;;8.50;49.80;;;;;;5008512;28;20427;-57
2022/02/07 14:52:47;;;;;;;4.90;2.07;;;7.70;51.20;;;;;;5004562;28;20459;-62
2022/02/07 14:55:13;;;;;;;8.60;2.70;;;7.00;52.80;;;;;;5011819;28;20418;-57
2022/02/07 14:57:39;;;;;;;13.87;2.63;;;6.40;54.50;;;;;;5011960;28;20435;-56
2022/02/07 15:00:08;;;;;;;17.23;3.40;;;5.70;55.30;;;;;;5008601;28;20422;-55
2022/02/07 15:02:34;;;;;;;6.63;2.50;;;5.30;57.10;;;;;;5004453;28;20451;-56
2022/02/07 15:05:00;;;;;;;5.97;3.17;;;4.90;60.50;;;;;;5002688;28;21014;-57
2022/02/07 15:07:27;;;;;;;11.53;2.70;;;4.60;64.50;;;;;;5007542;28;20514;-55
2022/02/07 15:09:53;;;;;;;9.77;3.10;;;4.40;67.90;;;;;;5010960;28;20866;-55
2022/02/07 15:12:19;;;;;;;4.47;2.50;;;4.30;70.60;;;;;;5006821;28;20911;-57
2022/02/07 15:14:49;;;;;;;7.63;2.67;;;4.10;71.90;;;;;;5003661;28;20450;-54
2022/02/07 15:17:28;;;;;;;5.50;2.40;;;4.00;75.10;;;;;;5004159;28;20177;-55
2022/02/07 15:19:58;;;;;;;6.30;2.63;;;3.80;77.00;;;;;;5011717;28;20430;-57
2022/02/07 15:22:25;;;;;;;7.20;2.90;;;3.70;78.80;;;;;;4999266;28;20424;-56
2022/02/07 15:24:51;;;;;;;4.33;2.67;;;3.60;82.40;;;;;;5004384;28;20665;-55
2022/02/07 15:27:17;;;;;;;7.33;3.17;;;3.60;83.20;;;;;;5018939;28;20437;-58
2022/02/07 15:29:44;;;;;;;7.27;3.07;;;3.50;85.30;;;;;;5020672;28;20601;-57
2022/02/07 15:32:31;;;;;;;9.60;3.27;;;3.50;86.70;;;;;;5027043;28;20453;-55
2022/02/07 15:35:01;;;;;;;14.47;3.67;;;3.40;89.10;;;;;;5026762;28;20515;-56
2022/02/07 15:37:28;;;;;;;4.43;2.57;;;3.40;90.10;;;;;;5015791;28;20427;-56
2022/02/07 15:39:55;;;;;;;9.43;2.90;;;3.30;90.50;;;;;;5015396;28;20429;-61
2022/02/07 15:42:21;;;;;;;13.87;2.83;;;3.30;91.50;;;;;;5010767;28;20473;-57
2022/02/07 15:44:48;;;;;;;9.10;2.40;;;3.30;91.50;;;;;;5010710;28;20443;-56
2022/02/07 15:47:14;;;;;;;7.63;2.20;;;3.30;90.40;;;;;;5019236;28;20426;-57
2022/02/07 15:49:40;;;;;;;4.93;2.70;;;3.20;87.50;;;;;;5014257;28;20419;-57
2022/02/07 15:52:06;;;;;;;9.63;2.80;;;3.20;88.30;;;;;;5017423;28;20446;-57
2022/02/07 15:54:37;;;;;;;6.83;3.00;;;3.10;85.50;;;;;;5015287;28;20306;-64